Time;durP1;ratioP1;P1;durP2;ratioP2;P2;SDS_P1;SDS_P2;PMS_P1;PMS_P2;Temp;Humidity;BMP_temperature;BMP_pressure;BME280_temperature;BME280_humidity;BME280_pressure;Samples;Min_cycle;Max_cycle;Signal;HPM_P1;HPM_P2
2021/12/02 00:01:42;;;;;;;75.63;33.90;;;3.90;93.90;;;3.65;66.52;94572.31;4999004;28;20868;-56
2021/12/02 00:04:09;;;;;;;52.60;28.03;;;3.90;93.80;;;3.65;66.93;94552.34;5006378;28;20464;-56
2021/12/02 00:06:37;;;;;;;78.67;34.10;;;3.80;93.80;;;3.66;66.23;94566.19;5000410;28;20479;-56
2021/12/02 00:09:06;;;;;;;63.90;32.07;;;3.80;93.90;;;3.64;66.53;94574.09;5008513;28;20470;-56
2021/12/02 00:11:33;;;;;;;67.13;29.90;;;3.80;93.70;;;3.60;66.71;94567.44;5005278;28;20480;-59
2021/12/02 00:14:07;;;;;;;53.10;30.10;;;3.80;93.70;;;3.58;67.28;94570.16;5002907;28;20458;-59
2021/12/02 00:16:38;;;;;;;52.73;27.67;;;3.80;94.00;;;3.60;66.62;94585.66;5007369;28;20493;-55
2021/12/02 00:21:53;;;;;;;51.17;25.40;;;3.80;93.70;;;3.52;67.27;94585.34;5004910;28;20470;-60
2021/12/02 00:24:24;;;;;;;60.37;28.60;;;3.70;94.20;;;3.49;67.20;94575.97;5001549;28;20827;-60
2021/12/02 00:26:52;;;;;;;42.43;23.40;;;3.70;94.20;;;3.49;66.63;94575.97;4996678;28;20483;-55
2021/12/02 00:29:21;;;;;;;56.83;26.47;;;3.70;94.00;;;3.52;67.13;94580.16;5008382;28;20458;-55
2021/12/02 00:31:50;;;;;;;45.53;24.10;;;3.70;94.30;;;3.54;66.98;94579.09;5004058;28;20476;-55
2021/12/02 00:34:17;;;;;;;44.37;23.33;;;3.70;94.20;;;3.55;67.27;94577.34;5003535;28;20459;-59
2021/12/02 00:36:45;;;;;;;48.50;22.17;;;3.70;94.20;;;3.57;66.82;94596.25;5007267;28;20493;-58
2021/12/02 00:39:13;;;;;;;45.80;21.20;;;3.80;94.00;;;3.55;67.34;94577.34;5003869;28;20991;-56
2021/12/02 00:41:42;;;;;;;34.10;19.07;;;3.70;94.00;;;3.53;66.83;94572.25;5004190;28;20478;-56
2021/12/02 00:44:10;;;;;;;45.90;21.20;;;3.70;94.00;;;3.54;67.46;94567.84;5000920;28;20488;-58
2021/12/02 00:46:38;;;;;;;31.60;16.47;;;3.70;94.20;;;3.55;66.88;94565.16;5003270;28;20843;-59
2021/12/02 00:49:11;;;;;;;32.67;17.33;;;3.70;93.80;;;3.57;67.46;94572.84;5000514;28;20458;-58
2021/12/02 00:51:38;;;;;;;35.87;17.90;;;3.70;94.30;;;3.57;67.42;94565.88;5004863;28;20474;-56
2021/12/02 00:54:07;;;;;;;32.13;18.13;;;3.80;94.40;;;3.61;66.44;94565.66;5005568;28;20970;-59
2021/12/02 00:56:34;;;;;;;41.10;18.90;;;3.80;94.20;;;3.64;66.97;94574.09;5003305;28;20509;-55
2021/12/02 00:59:03;;;;;;;29.00;17.80;;;3.80;94.50;;;3.66;67.42;94587.81;5004708;28;20600;-59
2021/12/02 01:01:34;;;;;;;46.93;17.50;;;3.80;94.60;;;3.68;67.39;94580.75;5007134;28;20477;-59
2021/12/02 01:04:03;;;;;;;28.83;17.33;;;3.90;94.20;;;3.70;66.77;94586.69;5005886;28;20442;-60
2021/12/02 01:06:31;;;;;;;35.30;18.03;;;3.90;94.10;;;3.71;66.92;94577.09;5006545;28;20482;-54
2021/12/02 01:08:58;;;;;;;38.87;20.30;;;3.90;94.10;;;3.73;66.69;94585.63;5009202;28;20629;-58
2021/12/02 01:11:26;;;;;;;45.93;19.40;;;3.90;94.10;;;3.74;66.90;94585.53;5008128;28;20473;-55
2021/12/02 01:13:53;;;;;;;53.00;20.70;;;3.90;94.40;;;3.74;66.47;94590.72;4995622;28;20454;-55
2021/12/02 01:16:22;;;;;;;57.23;23.80;;;3.90;94.10;;;3.73;67.17;94585.63;4998086;28;20505;-58
2021/12/02 01:18:50;;;;;;;52.70;25.60;;;3.90;94.10;;;3.72;66.74;94589.19;5006063;28;20448;-56
2021/12/02 01:21:18;;;;;;;59.53;26.17;;;3.90;93.90;;;3.68;66.22;94585.94;5007871;28;20474;-55
2021/12/02 01:23:46;;;;;;;60.50;30.77;;;3.90;93.60;;;3.64;66.69;94587.09;5006326;28;20472;-59
2021/12/02 01:26:13;;;;;;;72.10;34.67;;;3.90;93.80;;;3.61;66.71;94594.28;5007916;28;20479;-55
2021/12/02 01:28:41;;;;;;;79.27;39.40;;;3.80;93.90;;;3.56;66.29;94587.63;5001519;28;20546;-56
2021/12/02 01:31:08;;;;;;;80.63;39.00;;;3.80;93.70;;;3.54;66.64;94589.47;5003873;28;20480;-59
2021/12/02 01:33:38;;;;;;;77.90;37.70;;;3.80;93.90;;;3.50;66.18;94587.19;5002554;28;20455;-57
2021/12/02 01:36:06;;;;;;;87.37;39.80;;;3.70;93.60;;;3.44;66.13;94583.25;5001601;28;20497;-59
2021/12/02 01:38:34;;;;;;;78.63;40.20;;;3.70;93.70;;;3.37;66.25;94582.81;5004683;28;20469;-55
2021/12/02 01:41:03;;;;;;;85.17;38.13;;;3.60;93.70;;;3.35;67.08;94589.09;5000717;28;20474;-59
2021/12/02 01:43:49;;;;;;;92.53;38.43;;;3.60;93.90;;;3.32;67.69;94584.09;5001676;28;20565;-59
2021/12/02 01:46:18;;;;;;;71.83;36.07;;;3.60;94.20;;;3.28;67.01;94578.25;5002554;28;20482;-59
2021/12/02 01:48:58;;;;;;;81.37;39.57;;;3.50;94.00;;;3.25;66.92;94572.44;5004676;28;20449;-56
2021/12/02 01:51:25;;;;;;;76.33;39.87;;;3.50;94.20;;;3.22;67.49;94568.25;5007242;28;20469;-60
2021/12/02 01:53:52;;;;;;;78.47;40.80;;;3.40;94.40;;;3.19;67.04;94558.06;5003574;28;20448;-59
2021/12/02 01:56:20;;;;;;;91.23;38.60;;;3.40;94.10;;;3.14;67.34;94547.97;4999919;28;20492;-59
2021/12/02 01:58:49;;;;;;;88.53;40.40;;;3.30;94.30;;;3.09;66.88;94544.88;4999947;28;20465;-55
2021/12/02 02:01:20;;;;;;;78.43;38.90;;;3.30;94.40;;;3.05;66.74;94540.81;5003793;28;20466;-55
2021/12/02 02:03:50;;;;;;;65.60;35.13;;;3.20;94.30;;;3.01;67.29;94539.38;5001972;28;21004;-59
2021/12/02 02:06:21;;;;;;;66.77;32.10;;;3.20;94.10;;;2.94;66.94;94538.91;5003960;28;20478;-54
2021/12/02 02:08:49;;;;;;;67.03;31.10;;;3.10;93.90;;;2.89;67.45;94537.56;5001655;28;20856;-60
2021/12/02 02:11:16;;;;;;;54.57;30.13;;;3.10;94.40;;;2.86;67.16;94549.81;5001723;28;20485;-60
2021/12/02 02:13:44;;;;;;;57.83;30.67;;;3.00;94.50;;;2.88;68.22;94547.13;5002697;28;20455;-55
2021/12/02 02:16:12;;;;;;;55.90;31.13;;;3.10;94.80;;;2.87;68.42;94554.09;4999349;28;21003;-58
2021/12/02 02:18:40;;;;;;;61.63;32.70;;;3.10;94.90;;;2.89;68.34;94553.97;4996584;28;20454;-59
2021/12/02 02:21:13;;;;;;;61.73;31.67;;;3.10;95.00;;;2.90;68.32;94552.22;5010225;28;20476;-56
2021/12/02 02:23:45;;;;;;;63.17;32.53;;;3.10;94.80;;;2.91;68.92;94559.06;5004445;28;20528;-58
2021/12/02 02:26:12;;;;;;;50.13;29.50;;;3.10;95.10;;;2.94;68.03;94543.28;5004952;28;20478;-58
2021/12/02 02:28:40;;;;;;;72.60;32.27;;;3.10;94.90;;;2.96;68.21;94536.22;4996664;28;20951;-59
2021/12/02 02:31:07;;;;;;;53.67;31.30;;;3.20;95.10;;;2.98;67.79;94548.19;5000733;28;20983;-56
2021/12/02 02:33:37;;;;;;;63.33;33.77;;;3.20;95.10;;;2.99;68.49;94536.88;5002305;28;20477;-58
2021/12/02 02:36:06;;;;;;;69.33;35.53;;;3.20;95.20;;;2.99;68.45;94533.41;5005501;28;20472;-55
2021/12/02 02:38:35;;;;;;;68.93;32.00;;;3.20;95.10;;;2.99;67.67;94549.00;5000008;28;20473;-56
2021/12/02 02:41:04;;;;;;;68.30;31.93;;;3.20;94.70;;;2.99;67.71;94551.59;5004191;28;20481;-59
2021/12/02 02:43:33;;;;;;;57.50;31.27;;;3.20;94.70;;;2.96;67.55;94541.41;5003163;28;20875;-57
2021/12/02 02:46:01;;;;;;;62.70;30.93;;;3.20;94.60;;;2.96;67.74;94560.44;5006470;28;20481;-63
2021/12/02 02:48:29;;;;;;;66.70;32.30;;;3.20;94.90;;;2.94;67.93;94558.88;5000501;28;20461;-60
2021/12/02 02:50:57;;;;;;;68.60;32.57;;;3.20;94.60;;;2.93;68.49;94557.19;4999483;28;21006;-56
2021/12/02 02:53:25;;;;;;;75.07;32.40;;;3.10;94.90;;;2.92;68.29;94551.19;4997308;28;20454;-59
2021/12/02 02:56:07;;;;;;;65.17;31.50;;;3.10;94.80;;;2.96;67.93;94555.25;5000247;28;20469;-59
2021/12/02 02:58:47;;;;;;;74.13;31.70;;;3.20;95.00;;;2.98;68.15;94555.16;5011343;28;20442;-59
2021/12/02 03:01:27;;;;;;;58.67;30.20;;;3.20;95.00;;;3.00;68.57;94545.47;5008135;28;20562;-57
2021/12/02 03:04:03;;;;;;;64.43;32.00;;;3.20;94.90;;;2.98;67.95;94534.38;5012668;28;20444;-56
2021/12/02 03:06:35;;;;;;;57.60;28.77;;;3.20;94.70;;;2.96;67.44;94546.59;4999937;28;20563;-59
2021/12/02 03:09:05;;;;;;;50.10;28.23;;;3.20;95.00;;;2.96;68.18;94547.47;5004329;28;20471;-58
2021/12/02 03:11:42;;;;;;;58.80;29.67;;;3.20;94.90;;;2.98;68.05;94545.59;5004380;28;20542;-56
2021/12/02 03:14:13;;;;;;;51.57;28.10;;;3.20;94.90;;;3.02;68.24;94535.81;5003032;28;20556;-54
2021/12/02 03:16:45;;;;;;;54.30;27.83;;;3.20;94.90;;;3.04;67.32;94536.56;5002003;28;20496;-54
2021/12/02 03:19:23;;;;;;;63.53;31.30;;;3.30;95.00;;;3.05;67.26;94531.25;5009057;28;20450;-60
2021/12/02 03:21:51;;;;;;;69.47;33.83;;;3.30;94.70;;;3.05;67.90;94536.47;5011756;28;20473;-59
2021/12/02 03:24:18;;;;;;;70.77;34.50;;;3.30;94.90;;;3.04;66.90;94526.16;5005616;28;20458;-57
2021/12/02 03:26:48;;;;;;;66.20;34.43;;;3.30;94.60;;;3.02;66.73;94525.41;5009999;28;20501;-59
2021/12/02 03:29:15;;;;;;;73.40;36.17;;;3.20;94.50;;;2.98;67.39;94524.81;5005051;28;20457;-58
2021/12/02 03:31:42;;;;;;;68.83;36.90;;;3.20;94.40;;;2.96;67.00;94524.09;5006265;28;20472;-60
2021/12/02 03:34:12;;;;;;;75.90;38.03;;;3.20;94.40;;;2.93;66.65;94510.44;5003529;28;20450;-56
2021/12/02 03:36:40;;;;;;;75.23;38.00;;;3.20;94.40;;;2.88;67.27;94518.53;4998374;28;20498;-59
2021/12/02 03:39:09;;;;;;;72.60;37.23;;;3.10;94.10;;;2.76;66.85;94525.41;5007297;28;20454;-54
2021/12/02 03:41:37;;;;;;;66.53;33.00;;;3.00;93.70;;;2.62;67.74;94520.28;5014337;28;20485;-55
2021/12/02 03:44:06;;;;;;;67.03;33.20;;;2.90;94.10;;;2.56;67.09;94539.69;5003338;28;20460;-56
2021/12/02 03:46:34;;;;;;;55.73;28.93;;;2.80;94.40;;;2.54;67.08;94525.13;5006505;28;20497;-61
2021/12/02 03:49:01;;;;;;;52.20;27.87;;;2.80;94.40;;;2.53;67.44;94521.72;5006577;28;20899;-59
2021/12/02 03:51:28;;;;;;;56.43;27.43;;;2.80;94.60;;;2.54;67.48;94538.09;5012558;28;20997;-56
2021/12/02 03:53:56;;;;;;;59.07;29.40;;;2.80;94.90;;;2.55;67.69;94532.81;5001833;28;20459;-59
2021/12/02 03:56:23;;;;;;;56.03;29.60;;;2.80;95.00;;;2.58;68.08;94531.81;4998330;28;20481;-60
2021/12/02 03:58:51;;;;;;;56.53;29.47;;;2.80;94.90;;;2.60;68.52;94533.38;4999393;28;20450;-59
2021/12/02 04:01:20;;;;;;;84.20;35.37;;;2.80;95.10;;;2.62;68.21;94522.88;5010009;28;20476;-55
2021/12/02 04:03:48;;;;;;;70.33;33.13;;;2.80;94.90;;;2.63;68.16;94519.34;5005647;28;20829;-56
2021/12/02 04:06:16;;;;;;;63.13;32.80;;;2.80;94.90;;;2.60;67.73;94519.53;5002785;28;20533;-59
2021/12/02 04:08:45;;;;;;;63.70;32.73;;;2.90;95.00;;;2.60;67.30;94515.19;5004879;28;20459;-55
2021/12/02 04:11:21;;;;;;;61.10;31.40;;;2.80;94.80;;;2.62;67.88;94512.50;5005274;28;20555;-59
2021/12/02 04:13:59;;;;;;;66.87;33.07;;;2.80;94.80;;;2.62;67.57;94509.91;5012335;28;20442;-55
2021/12/02 04:16:29;;;;;;;72.87;35.17;;;2.80;94.80;;;2.64;67.13;94503.66;5003031;28;20481;-59
2021/12/02 04:18:57;;;;;;;70.03;35.50;;;2.90;94.70;;;2.63;67.70;94504.63;4997154;28;20442;-60
2021/12/02 04:21:24;;;;;;;82.90;39.10;;;2.90;94.50;;;2.63;67.66;94506.34;5001743;28;20467;-55
2021/12/02 04:23:51;;;;;;;79.67;39.47;;;2.90;94.60;;;2.62;67.93;94509.91;5008105;28;20473;-57
2021/12/02 04:26:18;;;;;;;80.00;36.47;;;2.90;94.60;;;2.61;67.51;94511.66;5001886;28;20539;-56
2021/12/02 04:28:46;;;;;;;89.93;40.43;;;2.80;94.50;;;2.61;67.94;94510.84;5001960;28;20916;-59
2021/12/02 04:31:14;;;;;;;75.67;39.63;;;2.80;94.40;;;2.61;67.22;94505.63;5009013;28;20483;-58
2021/12/02 04:33:42;;;;;;;90.77;41.80;;;2.80;94.40;;;2.60;67.04;94510.00;5008638;28;20463;-57
2021/12/02 04:36:10;;;;;;;75.73;39.10;;;2.80;94.50;;;2.57;66.88;94501.56;5012866;28;20477;-61
2021/12/02 04:38:38;;;;;;;79.60;39.10;;;2.80;94.40;;;2.51;67.72;94501.03;5012339;28;20492;-59
2021/12/02 04:41:05;;;;;;;68.60;31.50;;;2.80;94.40;;;2.46;67.48;94497.94;5002715;28;20501;-57
2021/12/02 04:43:32;;;;;;;71.73;33.77;;;2.70;94.40;;;2.44;68.13;94499.78;5002705;28;20446;-58
2021/12/02 04:45:59;;;;;;;64.07;34.50;;;2.70;94.90;;;2.45;68.45;94493.66;5004643;28;20478;-58
2021/12/02 04:48:27;;;;;;;65.13;34.27;;;2.70;95.00;;;2.45;66.99;94488.47;4999619;28;20518;-59
2021/12/02 04:50:55;;;;;;;73.53;36.00;;;2.70;94.80;;;2.46;67.77;94505.72;4997148;28;20995;-59
2021/12/02 04:53:23;;;;;;;81.73;39.80;;;2.70;94.80;;;2.46;68.50;94502.28;4999964;28;20453;-58
2021/12/02 04:55:51;;;;;;;88.53;43.47;;;2.70;94.70;;;2.47;67.66;94490.97;5005305;28;20501;-58
2021/12/02 04:58:18;;;;;;;97.00;49.80;;;2.70;94.80;;;2.45;67.44;94490.25;5007802;28;21060;-59
2021/12/02 05:00:46;;;;;;;111.20;53.40;;;2.70;94.50;;;2.44;67.24;94494.59;5007969;28;20469;-56
2021/12/02 05:03:13;;;;;;;116.80;55.17;;;2.70;94.40;;;2.42;66.45;94498.22;5004317;28;20499;-56
2021/12/02 05:05:40;;;;;;;108.47;52.60;;;2.70;94.20;;;2.39;67.39;94485.44;5002767;28;20489;-59
2021/12/02 05:08:09;;;;;;;110.70;54.07;;;2.70;94.20;;;2.35;67.64;94487.41;5009590;28;20460;-59
2021/12/02 05:10:36;;;;;;;114.20;53.60;;;2.60;94.10;;;2.32;66.59;94487.59;4998671;28;20481;-59
2021/12/02 05:13:04;;;;;;;109.83;53.20;;;2.60;94.40;;;2.29;66.55;94480.00;5007386;28;20453;-57
2021/12/02 05:15:31;;;;;;;120.57;55.70;;;2.50;94.10;;;2.25;67.48;94483.75;4999427;28;20473;-60
2021/12/02 05:17:58;;;;;;;116.93;53.80;;;2.50;94.20;;;2.23;67.50;94485.59;4999171;28;21089;-57
2021/12/02 05:20:26;;;;;;;113.23;52.23;;;2.40;94.30;;;2.23;67.88;94475.22;5006806;28;20477;-55
2021/12/02 05:22:53;;;;;;;109.70;52.87;;;2.50;94.30;;;2.21;67.50;94487.47;5006684;28;20477;-57
2021/12/02 05:25:22;;;;;;;106.77;48.53;;;2.50;94.30;;;2.21;67.43;94487.47;5006318;28;20469;-60
2021/12/02 05:27:49;;;;;;;94.80;46.33;;;2.50;94.30;;;2.23;66.44;94472.63;5001517;28;20451;-58
2021/12/02 05:30:16;;;;;;;91.43;46.77;;;2.50;94.30;;;2.23;67.74;94475.22;5003240;28;20869;-60
2021/12/02 05:32:44;;;;;;;105.90;50.87;;;2.50;94.40;;;2.24;67.79;94480.31;5004702;28;20455;-57
2021/12/02 05:35:11;;;;;;;95.63;49.37;;;2.50;94.30;;;2.24;67.77;94474.28;5003425;28;20517;-59
2021/12/02 05:37:39;;;;;;;110.20;48.67;;;2.50;94.30;;;2.25;67.85;94470.78;5000140;28;20490;-54
2021/12/02 05:40:08;;;;;;;100.80;46.47;;;2.50;94.30;;;2.22;66.77;94476.16;4998130;28;20450;-57
2021/12/02 05:42:37;;;;;;;90.40;48.47;;;2.50;94.20;;;2.17;66.46;94462.63;4998793;28;20457;-59
2021/12/02 05:45:05;;;;;;;100.37;48.40;;;2.50;94.30;;;2.14;67.72;94474.88;5003457;28;20495;-58
2021/12/02 05:47:32;;;;;;;91.53;47.60;;;2.40;94.30;;;2.17;67.52;94478.19;5001263;28;20520;-56
2021/12/02 05:50:00;;;;;;;102.93;47.33;;;2.40;94.30;;;2.14;66.95;94487.84;5003852;28;20457;-59
2021/12/02 05:52:27;;;;;;;101.57;49.37;;;2.40;94.50;;;2.13;68.14;94486.19;5005965;28;20465;-57
2021/12/02 05:54:57;;;;;;;115.20;48.40;;;2.40;94.40;;;2.13;67.23;94486.19;5003971;28;20465;-56
2021/12/02 05:57:25;;;;;;;102.27;47.77;;;2.40;94.40;;;2.14;66.54;94481.84;4998180;28;20478;-58
2021/12/02 05:59:53;;;;;;;111.50;49.27;;;2.40;94.40;;;2.18;67.62;94485.06;5000468;28;20470;-56
2021/12/02 06:02:21;;;;;;;114.17;52.63;;;2.40;94.60;;;2.30;67.83;94482.50;4998154;28;20466;-58
2021/12/02 06:04:52;;;;;;;108.73;49.63;;;2.50;95.00;;;2.58;68.44;94485.06;4999256;28;20962;-58
2021/12/02 06:07:19;;;;;;;104.03;49.67;;;2.70;95.10;;;2.94;67.15;94483.53;5005176;28;20536;-61
2021/12/02 06:09:47;;;;;;;107.97;49.77;;;3.10;94.90;;;3.36;66.63;94481.56;5000606;28;21009;-55
2021/12/02 06:12:14;;;;;;;98.97;49.23;;;3.60;94.80;;;3.80;65.38;94488.03;5006169;28;20467;-56
2021/12/02 06:14:42;;;;;;;105.23;49.30;;;4.00;93.90;;;4.22;65.25;94474.66;5005716;28;20990;-56
2021/12/02 06:17:10;;;;;;;121.60;50.97;;;4.50;93.50;;;4.66;64.42;94473.16;4999900;28;20474;-56
2021/12/02 06:19:38;;;;;;;96.43;46.80;;;4.90;93.40;;;5.10;63.26;94491.66;4997371;28;21004;-70
2021/12/02 06:22:05;;;;;;;88.73;46.60;;;5.30;92.20;;;5.54;62.26;94490.00;4997806;28;20466;-60
2021/12/02 06:24:42;;;;;;;91.47;47.37;;;5.80;91.80;;;5.99;61.72;94484.78;4994953;28;20462;-60
2021/12/02 06:27:10;;;;;;;88.17;46.20;;;6.30;90.80;;;6.48;59.75;94490.47;4995941;28;20466;-60
2021/12/02 06:29:37;;;;;;;89.73;47.50;;;6.80;89.40;;;6.87;59.25;94480.31;5000200;28;20481;-57
2021/12/02 06:32:07;;;;;;;91.40;47.80;;;7.30;88.20;;;7.28;59.45;94488.28;5003026;28;20557;-59
2021/12/02 06:34:36;;;;;;;89.80;47.93;;;7.70;87.50;;;7.71;57.22;94497.72;5005161;28;20503;-57
2021/12/02 06:37:03;;;;;;;84.80;46.20;;;8.10;84.30;;;8.18;56.81;94492.78;5005016;28;20798;-60
2021/12/02 06:39:31;;;;;;;92.13;47.83;;;8.60;82.50;;;8.71;56.03;94490.81;5006229;28;20491;-56
2021/12/02 06:41:58;;;;;;;89.23;43.80;;;9.10;82.30;;;9.20;52.77;94496.00;5005817;28;20512;-60
2021/12/02 06:44:27;;;;;;;98.10;45.20;;;9.70;76.40;;;9.64;52.25;94480.56;5002426;28;21022;-60
2021/12/02 06:46:55;;;;;;;75.27;38.60;;;10.10;73.30;;;10.05;51.37;94478.44;5008928;28;20548;-57
2021/12/02 06:49:23;;;;;;;71.60;40.23;;;10.50;71.90;;;10.44;51.65;94483.53;5001804;28;20932;-60
2021/12/02 06:51:51;;;;;;;76.17;37.07;;;10.80;71.60;;;10.83;51.54;94479.75;5006289;28;20537;-57
2021/12/02 06:54:19;;;;;;;85.27;44.57;;;11.20;71.30;;;11.21;51.26;94483.84;5000900;28;20454;-60
2021/12/02 06:56:46;;;;;;;80.40;37.10;;;11.60;70.30;;;11.60;49.87;94485.25;5004592;28;20471;-56
2021/12/02 06:59:13;;;;;;;75.80;40.33;;;12.00;67.40;;;11.99;48.63;94479.56;5006077;28;20493;-60
2021/12/02 07:01:41;;;;;;;66.70;35.83;;;12.50;65.40;;;12.34;48.54;94477.72;5004738;28;20469;-59
2021/12/02 07:04:09;;;;;;;61.03;37.77;;;12.80;64.80;;;12.65;48.84;94474.50;5003392;28;20477;-55
2021/12/02 07:06:38;;;;;;;55.50;30.10;;;13.20;65.30;;;12.94;46.39;94473.22;4999637;28;20477;-55
2021/12/02 07:09:07;;;;;;;45.80;29.10;;;13.50;59.90;;;13.17;47.87;94476.84;5009047;28;20485;-60
2021/12/02 07:11:35;;;;;;;60.73;31.50;;;13.80;63.20;;;13.42;46.00;94482.16;5003401;28;20866;-56
2021/12/02 07:14:04;;;;;;;59.23;32.07;;;14.00;59.40;;;13.76;45.69;94471.34;5006076;28;20484;-59
2021/12/02 07:16:32;;;;;;;55.97;30.57;;;14.40;58.80;;;14.22;44.83;94468.06;5006773;28;20477;-56
2021/12/02 07:18:59;;;;;;;53.83;29.43;;;14.80;57.50;;;14.60;43.48;94454.97;5002187;28;20489;-60
2021/12/02 07:21:27;;;;;;;57.70;29.80;;;15.30;56.10;;;14.95;42.07;94467.81;5007926;28;20510;-56
2021/12/02 07:23:54;;;;;;;104.83;63.30;;;15.60;53.60;;;15.31;43.01;94462.75;5004732;28;20461;-60
2021/12/02 07:26:23;;;;;;;96.50;59.47;;;15.90;54.50;;;15.66;40.59;94459.59;5006011;28;20643;-56
2021/12/02 07:28:50;;;;;;;93.20;51.80;;;16.20;51.50;;;15.95;40.60;94464.13;5001990;28;20537;-58
2021/12/02 07:31:18;;;;;;;92.80;51.10;;;16.40;51.60;;;16.09;39.32;94460.63;4999993;28;21133;-55
2021/12/02 07:33:48;;;;;;;93.07;52.17;;;16.50;49.40;;;16.20;39.52;94461.19;5003846;28;20459;-58
2021/12/02 07:36:16;;;;;;;118.53;62.17;;;16.50;49.90;;;16.27;41.00;94454.16;5000111;28;20484;-60
2021/12/02 07:38:43;;;;;;;115.20;63.20;;;16.40;50.90;;;16.18;38.66;94457.91;4998898;28;20549;-56
2021/12/02 07:41:10;;;;;;;137.10;76.93;;;16.20;49.00;;;16.08;37.39;94447.56;5001707;28;20503;-56
2021/12/02 07:43:39;;;;;;;150.57;83.17;;;16.00;47.20;;;16.04;38.86;94452.41;5002383;28;20464;-57
2021/12/02 07:46:07;;;;;;;80.83;49.00;;;15.90;49.10;;;16.00;39.50;94456.44;5003020;28;20517;-56
2021/12/02 07:48:35;;;;;;;118.33;61.30;;;15.80;49.30;;;15.97;39.86;94456.81;5002500;28;20459;-58
2021/12/02 07:51:04;;;;;;;95.40;53.07;;;15.70;50.30;;;15.95;38.87;94461.47;5003932;28;20474;-61
2021/12/02 07:53:31;;;;;;;66.63;40.70;;;15.70;48.70;;;16.02;39.68;94466.88;5000883;28;20454;-60
2021/12/02 07:55:59;;;;;;;76.53;43.30;;;15.70;49.70;;;16.17;38.01;94469.53;5006158;28;20521;-62
2021/12/02 07:58:27;;;;;;;43.63;26.53;;;15.90;48.10;;;16.39;39.56;94475.72;4999222;28;20501;-55
2021/12/02 08:00:57;;;;;;;30.33;18.90;;;16.00;49.60;;;16.42;37.24;94470.88;4997431;28;20647;-60
2021/12/02 08:03:26;;;;;;;39.13;19.50;;;16.10;47.10;;;16.40;37.69;94469.41;5005103;28;20975;-60
2021/12/02 08:05:53;;;;;;;33.03;15.70;;;16.00;48.00;;;16.39;36.88;94473.91;5000159;28;20474;-56
2021/12/02 08:08:21;;;;;;;33.00;16.67;;;15.90;46.60;;;16.48;36.60;94480.75;5004116;28;20461;-60
2021/12/02 08:10:48;;;;;;;24.70;16.13;;;16.00;46.60;;;16.69;36.69;94471.19;5006940;28;20491;-60
2021/12/02 08:13:15;;;;;;;33.67;16.90;;;16.20;46.90;;;16.95;35.48;94467.19;5005712;28;20459;-59
2021/12/02 08:15:43;;;;;;;35.83;17.73;;;16.40;45.00;;;17.23;35.25;94471.72;5005274;28;20495;-60
2021/12/02 08:18:12;;;;;;;30.97;18.70;;;16.70;44.80;;;17.52;34.70;94452.13;4999098;28;20490;-57
2021/12/02 08:20:39;;;;;;;44.53;19.70;;;17.00;44.70;;;17.74;35.93;94468.88;5003528;28;20481;-60
2021/12/02 08:23:07;;;;;;;78.83;40.80;;;17.30;46.30;;;17.83;34.17;94478.38;5003022;28;20450;-57
2021/12/02 08:25:34;;;;;;;69.80;35.60;;;17.50;43.70;;;17.90;35.88;94471.25;5009194;28;20470;-61
2021/12/02 08:28:02;;;;;;;69.83;42.70;;;17.60;45.20;;;17.83;35.36;94473.03;5001068;28;20457;-61
2021/12/02 08:30:30;;;;;;;72.77;38.20;;;17.50;44.80;;;17.59;34.70;94463.66;5001842;28;20915;-61
2021/12/02 08:32:59;;;;;;;50.90;29.60;;;17.40;43.30;;;17.51;35.22;94464.63;5003785;28;20504;-56
2021/12/02 08:35:27;;;;;;;43.53;25.40;;;17.30;43.70;;;17.58;35.22;94461.19;5002743;28;20513;-55
2021/12/02 08:37:59;;;;;;;65.37;32.30;;;17.30;43.20;;;17.65;34.65;94454.91;5003014;28;20458;-59
2021/12/02 08:40:31;;;;;;;44.10;27.10;;;17.30;43.50;;;17.74;33.91;94460.91;5001278;28;20471;-57
2021/12/02 08:42:59;;;;;;;48.10;30.63;;;17.30;42.80;;;17.80;34.98;94452.16;5000501;28;20516;-60
2021/12/02 08:45:27;;;;;;;38.07;23.07;;;17.40;43.90;;;17.82;35.51;94443.97;4998008;28;20554;-56
2021/12/02 08:47:55;;;;;;;61.43;30.43;;;17.40;44.70;;;17.77;36.05;94451.69;4999296;28;20561;-57
2021/12/02 08:50:22;;;;;;;50.00;31.67;;;17.40;45.40;;;17.74;34.86;94442.28;4999707;28;20552;-61
2021/12/02 08:52:53;;;;;;;42.00;28.27;;;17.40;44.00;;;17.62;34.99;94451.81;5000565;28;20464;-57
2021/12/02 08:55:21;;;;;;;35.40;21.27;;;17.30;43.50;;;17.50;33.97;94441.69;5001968;28;20473;-60
2021/12/02 08:57:49;;;;;;;26.73;17.80;;;17.10;41.80;;;17.50;32.51;94441.69;5002300;28;20459;-61
2021/12/02 09:00:18;;;;;;;25.70;16.60;;;17.00;41.10;;;17.54;33.77;94437.63;5000747;28;20446;-56
2021/12/02 09:02:46;;;;;;;36.43;20.40;;;17.00;41.90;;;17.66;35.20;94439.75;5002799;28;20468;-61
2021/12/02 09:05:13;;;;;;;38.43;24.03;;;17.10;43.40;;;17.74;34.29;94435.13;4997961;28;20458;-57
2021/12/02 09:07:40;;;;;;;47.13;23.93;;;17.20;43.20;;;17.84;33.33;94415.31;4999899;28;20501;-60
2021/12/02 09:10:10;;;;;;;48.73;20.00;;;17.30;42.70;;;17.82;34.85;94407.53;5001359;28;20465;-60
2021/12/02 09:12:38;;;;;;;25.93;16.90;;;17.40;43.70;;;17.82;34.57;94423.50;5010335;28;20843;-58
2021/12/02 09:15:08;;;;;;;41.90;22.67;;;17.40;42.60;;;17.91;33.58;94413.56;4997707;28;20837;-56
2021/12/02 09:17:36;;;;;;;44.80;20.30;;;17.50;42.30;;;18.02;34.08;94404.22;5004350;28;20944;-61
2021/12/02 09:20:03;;;;;;;37.50;20.00;;;17.50;42.70;;;18.09;34.63;94411.22;5000969;28;20497;-61
2021/12/02 09:22:31;;;;;;;42.90;23.30;;;17.60;43.60;;;18.13;34.66;94414.28;5001539;28;20450;-57
2021/12/02 09:25:01;;;;;;;39.90;20.53;;;17.70;43.60;;;18.13;34.28;94416.94;5004802;28;20454;-61
2021/12/02 09:27:30;;;;;;;68.83;36.30;;;17.70;42.60;;;18.10;33.91;94401.38;5004054;28;20449;-63
2021/12/02 09:29:57;;;;;;;71.80;34.80;;;17.70;42.90;;;18.06;34.48;94392.13;5010677;28;20459;-61
2021/12/02 09:32:25;;;;;;;67.30;36.83;;;17.70;43.20;;;18.04;34.02;94391.50;5000335;28;20483;-58
2021/12/02 09:34:52;;;;;;;69.77;34.33;;;17.60;43.50;;;17.99;34.14;94393.97;4999497;28;20478;-61
2021/12/02 09:37:19;;;;;;;56.17;32.73;;;17.50;42.90;;;17.99;34.84;94396.63;4997585;28;20467;-62
2021/12/02 09:39:47;;;;;;;55.90;32.43;;;17.40;43.90;;;18.07;34.46;94396.44;5002099;28;20493;-58
2021/12/02 09:42:14;;;;;;;54.93;28.50;;;17.40;43.30;;;18.20;33.91;94393.00;5006130;28;20485;-56
2021/12/02 09:44:46;;;;;;;39.50;25.77;;;17.50;43.40;;;18.34;34.72;94388.56;5003277;28;20446;-58
2021/12/02 09:47:16;;;;;;;41.10;20.90;;;17.70;43.60;;;18.49;33.83;94380.41;4997151;28;20486;-56
2021/12/02 09:49:43;;;;;;;31.33;20.10;;;17.90;42.70;;;18.65;32.46;94377.38;5004690;28;20462;-56
2021/12/02 09:52:15;;;;;;;34.70;21.17;;;18.00;41.90;;;18.75;32.47;94380.47;5003476;28;20559;-56
2021/12/02 09:54:46;;;;;;;40.90;19.40;;;18.10;40.90;;;18.82;33.60;94364.47;4998892;28;20449;-57
2021/12/02 09:57:16;;;;;;;26.20;16.63;;;18.20;41.80;;;18.80;31.51;94364.69;4994376;28;20490;-56
2021/12/02 09:59:50;;;;;;;39.50;18.73;;;18.20;40.00;;;18.84;32.48;94373.13;5002472;28;20481;-60
2021/12/02 10:02:20;;;;;;;28.70;18.60;;;18.20;41.20;;;18.97;32.25;94367.81;4994611;28;20848;-61
2021/12/02 10:04:51;;;;;;;41.83;16.33;;;18.30;40.30;;;19.24;33.05;94357.16;5000728;28;20528;-58
2021/12/02 10:07:23;;;;;;;28.60;17.10;;;18.50;41.50;;;19.49;31.95;94349.34;4997439;28;20550;-57
2021/12/02 10:09:57;;;;;;;30.83;18.00;;;18.70;41.30;;;19.64;31.93;94349.13;5000080;28;20445;-59
2021/12/02 10:12:24;;;;;;;32.73;15.83;;;19.00;41.20;;;19.78;31.63;94341.91;5003014;28;20477;-57
2021/12/02 10:14:56;;;;;;;29.27;18.03;;;19.10;40.10;;;20.00;31.03;94344.28;5004555;28;20951;-58
2021/12/02 10:17:32;;;;;;;32.70;19.37;;;19.30;39.70;;;20.26;30.74;94338.00;4998770;28;20477;-57
2021/12/02 10:20:18;;;;;;;20.30;14.10;;;19.50;39.40;;;20.49;30.72;94328.66;4997064;28;20490;-61
2021/12/02 10:23:09;;;;;;;31.60;16.50;;;19.70;39.70;;;20.66;29.53;94331.69;4998255;28;20451;-56